Time;durP1;ratioP1;P1;durP2;ratioP2;P2;SDS_P1;SDS_P2;PMS_P1;PMS_P2;Temp;Humidity;BMP_temperature;BMP_pressure;BME280_temperature;BME280_humidity;BME280_pressure;Samples;Min_cycle;Max_cycle;Signal;HPM_P1;HPM_P2
2022/07/05 00:01:26;;;;;;;4.47;2.40;;;;;;;16.62;61.81;96636.47;5092944;28;20547;-62
2022/07/05 00:03:53;;;;;;;3.42;2.45;;;;;;;16.58;61.23;96635.81;5092984;28;20493;-62
2022/07/05 00:06:20;;;;;;;2.97;2.35;;;;;;;16.54;61.11;96642.22;5093018;28;20048;-62
2022/07/05 00:08:47;;;;;;;5.65;2.85;;;;;;;16.46;60.86;96631.28;5092814;28;20052;-62
2022/07/05 00:11:14;;;;;;;4.25;2.70;;;;;;;16.38;61.67;96616.75;5092981;28;20135;-62
2022/07/05 00:13:41;;;;;;;4.82;2.45;;;;;;;16.33;61.12;96631.16;5092985;28;20040;-62
2022/07/05 00:16:09;;;;;;;3.38;2.70;;;;;;;16.27;60.86;96632.38;5092956;28;20097;-62
2022/07/05 00:18:37;;;;;;;5.25;2.03;;;;;;;16.27;60.16;96622.69;5093318;28;20382;-62
2022/07/05 00:21:05;;;;;;;3.25;2.55;;;;;;;16.27;60.67;96611.28;5096813;28;20087;-62
2022/07/05 00:23:32;;;;;;;3.50;2.28;;;;;;;16.18;60.87;96610.03;5096736;28;20397;-62
2022/07/05 00:25:59;;;;;;;2.85;2.30;;;;;;;16.11;59.33;96612.19;5096647;28;20048;-62
2022/07/05 00:28:26;;;;;;;6.07;2.22;;;;;;;16.03;57.57;96604.72;5096391;28;20044;-62
2022/07/05 00:30:53;;;;;;;8.32;2.38;;;;;;;15.97;57.90;96609.50;5096452;28;20131;-62
2022/07/05 00:33:20;;;;;;;3.53;2.40;;;;;;;15.93;58.34;96611.47;5096569;28;20048;-62
2022/07/05 00:35:48;;;;;;;3.58;2.58;;;;;;;15.82;60.92;96601.53;5096484;28;20083;-62
2022/07/05 00:38:15;;;;;;;2.47;2.13;;;;;;;15.72;61.58;96601.22;5096549;28;20079;-62
2022/07/05 00:40:44;;;;;;;7.07;2.53;;;;;;;15.61;59.05;96604.47;5096364;28;20076;-62
2022/07/05 00:43:11;;;;;;;3.38;2.28;;;;;;;15.59;60.27;96592.34;5096259;28;20040;-62
2022/07/05 00:45:38;;;;;;;5.38;3.00;;;;;;;15.53;60.86;96599.63;5096341;28;20054;-62
2022/07/05 00:48:06;;;;;;;2.92;2.22;;;;;;;15.57;61.87;96592.41;5096140;28;20048;-62
2022/07/05 00:50:33;;;;;;;2.60;2.40;;;;;;;15.60;61.44;96586.09;5096081;28;20059;-62
2022/07/05 00:53:02;;;;;;;2.78;2.45;;;;;;;15.64;60.01;96582.34;5096127;28;20093;-62
2022/07/05 00:55:29;;;;;;;2.45;2.13;;;;;;;15.69;59.36;96590.84;5095988;28;20489;-62
2022/07/05 00:57:56;;;;;;;2.60;2.20;;;;;;;15.72;60.24;96581.91;5096035;28;20044;-62
2022/07/05 01:00:23;;;;;;;3.22;2.30;;;;;;;15.75;60.82;96590.47;5096084;28;20048;-62
2022/07/05 01:02:51;;;;;;;2.95;2.50;;;;;;;15.78;59.51;96592.09;5096031;28;20048;-62
2022/07/05 01:05:20;;;;;;;2.92;2.40;;;;;;;15.84;57.95;96588.25;5095874;28;20040;-62
2022/07/05 01:07:47;;;;;;;6.75;3.10;;;;;;;15.85;59.86;96580.25;5095915;28;20047;-62
2022/07/05 01:10:15;;;;;;;3.92;1.98;;;;;;;15.82;59.54;96574.31;5095733;28;20048;-62
2022/07/05 01:12:43;;;;;;;2.83;2.58;;;;;;;15.83;59.23;96571.56;5095790;28;20564;-62
2022/07/05 01:15:11;;;;;;;4.40;2.45;;;;;;;15.84;59.44;96567.16;5095744;28;20048;-62
2022/07/05 01:17:38;;;;;;;3.03;2.30;;;;;;;15.87;59.20;96572.25;5095514;28;20139;-62
2022/07/05 01:20:07;;;;;;;5.32;2.53;;;;;;;15.96;59.84;96569.13;5095591;28;20048;-62
2022/07/05 01:22:52;;;;;;;3.72;2.20;;;;;;;15.91;59.99;96566.72;5095621;28;20417;-62
2022/07/05 01:25:20;;;;;;;2.83;2.30;;;;;;;15.95;59.49;96575.28;5095689;28;20053;-62
2022/07/05 01:27:48;;;;;;;2.88;2.40;;;;;;;15.99;59.48;96568.06;5095426;28;20116;-62
2022/07/05 01:30:16;;;;;;;2.97;2.30;;;;;;;16.04;59.81;96563.34;5094404;28;20058;-62
2022/07/05 01:32:43;;;;;;;6.10;2.40;;;;;;;16.07;60.26;96568.44;5095344;28;20083;-62
2022/07/05 01:35:11;;;;;;;4.38;2.30;;;;;;;16.08;60.67;96577.22;5095394;28;20140;-62
2022/07/05 01:37:38;;;;;;;2.70;2.45;;;;;;;16.06;60.66;96585.22;5095321;28;20044;-62
2022/07/05 01:40:08;;;;;;;3.33;2.20;;;;;;;16.03;60.32;96580.13;5095238;28;20043;-62
2022/07/05 01:42:35;;;;;;;3.58;2.40;;;;;;;16.00;58.69;96582.94;5095178;28;20485;-63
2022/07/05 01:45:03;;;;;;;3.97;2.40;;;;;;;16.02;58.30;96589.81;5095074;28;20083;-62
2022/07/05 01:47:30;;;;;;;5.25;2.58;;;;;;;16.06;59.21;96577.31;5094952;28;20044;-62
2022/07/05 01:50:00;;;;;;;4.15;2.65;;;;;;;16.10;59.25;96575.34;5094910;28;20135;-62
2022/07/05 01:52:30;;;;;;;2.72;2.28;;;;;;;16.15;58.96;96575.91;5094933;28;20055;-62
2022/07/05 01:54:57;;;;;;;2.80;2.03;;;;;;;16.16;58.84;96573.19;5094805;28;20502;-62
2022/07/05 01:57:25;;;;;;;2.55;2.08;;;;;;;16.11;59.80;96572.63;5095212;28;20051;-62
2022/07/05 01:59:52;;;;;;;2.45;2.25;;;;;;;16.03;60.06;96574.84;5094882;28;20454;-62
2022/07/05 02:02:19;;;;;;;4.07;2.65;;;;;;;16.00;60.38;96583.81;5094760;28;20489;-62
2022/07/05 02:04:46;;;;;;;4.10;2.40;;;;;;;15.96;61.06;96584.06;5094721;28;20105;-62
2022/07/05 02:07:13;;;;;;;6.45;2.55;;;;;;;15.93;60.53;96579.81;5094830;28;20048;-62
2022/07/05 02:09:40;;;;;;;2.60;2.33;;;;;;;15.90;60.52;96575.53;5094669;28;20097;-62
2022/07/05 02:12:08;;;;;;;2.38;2.13;;;;;;;15.86;59.45;96584.59;5094674;28;20040;-62
2022/07/05 02:14:37;;;;;;;2.20;2.00;;;;;;;15.83;60.05;96584.75;5094596;28;20083;-62
2022/07/05 02:17:04;;;;;;;2.33;2.13;;;;;;;15.87;59.54;96582.81;5094466;28;20076;-62
2022/07/05 02:19:31;;;;;;;2.15;1.95;;;;;;;15.66;57.67;96585.75;5094348;28;20120;-62
2022/07/05 02:21:58;;;;;;;6.45;2.40;;;;;;;15.64;59.17;96588.47;5094788;28;20131;-62
2022/07/05 02:24:25;;;;;;;5.35;2.50;;;;;;;15.68;59.57;96585.69;5094451;28;20052;-62
2022/07/05 02:26:52;;;;;;;3.78;2.10;;;;;;;15.60;59.38;96584.34;5094321;28;20044;-62
2022/07/05 02:29:20;;;;;;;3.60;1.95;;;;;;;15.63;60.21;96585.94;5094279;28;20452;-62
2022/07/05 02:31:48;;;;;;;3.65;2.28;;;;;;;15.60;60.38;96586.97;5094188;28;20136;-62
2022/07/05 02:34:15;;;;;;;4.20;2.42;;;;;;;15.64;59.98;96588.47;5094334;28;20113;-62
2022/07/05 02:36:42;;;;;;;6.53;2.60;;;;;;;15.47;59.73;96593.88;5094160;28;20051;-62
2022/07/05 02:39:09;;;;;;;3.03;2.20;;;;;;;15.46;59.14;96597.44;5094090;28;20047;-62
2022/07/05 02:41:36;;;;;;;2.75;2.20;;;;;;;15.48;58.93;96592.94;5094058;28;20109;-62
2022/07/05 02:44:04;;;;;;;4.40;2.75;;;;;;;15.43;58.82;96585.28;5094065;28;20083;-62
2022/07/05 02:46:31;;;;;;;3.15;2.40;;;;;;;15.46;60.06;96585.13;5093988;28;20459;-62
2022/07/05 02:49:00;;;;;;;2.83;2.53;;;;;;;15.48;60.20;96579.75;5093982;28;20047;-62
2022/07/05 02:51:27;;;;;;;4.03;2.60;;;;;;;15.44;59.93;96589.63;5093954;28;20043;-62
2022/07/05 02:53:54;;;;;;;3.45;2.28;;;;;;;15.36;60.43;96590.06;5093945;28;20094;-62
2022/07/05 02:56:21;;;;;;;4.18;2.38;;;;;;;15.37;60.65;96588.25;5093763;28;20478;-62
2022/07/05 02:58:49;;;;;;;2.33;2.13;;;;;;;15.38;60.38;96588.19;5093780;28;20087;-62
2022/07/05 03:01:16;;;;;;;2.53;2.25;;;;;;;15.38;59.46;96595.25;5093793;28;20105;-62
2022/07/05 03:03:43;;;;;;;2.55;2.00;;;;;;;15.39;58.58;96591.69;5093561;28;20078;-62
2022/07/05 03:06:11;;;;;;;3.85;2.25;;;;;;;15.43;58.72;96598.47;5093554;28;20070;-62
2022/07/05 03:08:38;;;;;;;2.67;2.33;;;;;;;15.47;59.58;96596.53;5093591;28;20051;-62
2022/07/05 03:11:06;;;;;;;3.72;2.10;;;;;;;15.53;60.26;96590.88;5093457;28;20051;-63
2022/07/05 03:13:33;;;;;;;3.35;2.30;;;;;;;15.55;59.91;96591.66;5093414;28;20054;-62
2022/07/05 03:16:00;;;;;;;5.22;2.05;;;;;;;15.57;60.36;96600.31;5093567;28;20116;-62
2022/07/05 03:18:27;;;;;;;2.28;2.08;;;;;;;15.61;60.75;96595.72;5093128;28;20044;-62
2022/07/05 03:20:54;;;;;;;5.22;2.42;;;;;;;15.64;60.61;96595.53;5093400;28;20744;-62
2022/07/05 03:23:24;;;;;;;3.45;2.28;;;;;;;15.70;61.34;96595.19;5093407;28;20044;-62
2022/07/05 03:25:51;;;;;;;2.50;2.30;;;;;;;15.67;61.37;96598.00;5093355;28;20047;-63
2022/07/05 03:28:18;;;;;;;2.53;2.10;;;;;;;15.66;61.17;96596.31;5093509;28;20046;-62
2022/07/05 03:30:45;;;;;;;4.05;2.47;;;;;;;15.73;61.53;96594.16;5093160;28;20055;-62
2022/07/05 03:33:12;;;;;;;7.68;2.53;;;;;;;15.81;62.02;96593.72;5093172;28;20048;-62
2022/07/05 03:35:40;;;;;;;4.32;2.30;;;;;;;15.98;62.13;96601.50;5093390;28;20052;-62
2022/07/05 03:38:07;;;;;;;2.88;2.10;;;;;;;16.20;61.97;96591.47;5093384;28;20047;-62
2022/07/05 03:40:36;;;;;;;2.25;1.90;;;;;;;16.41;61.14;96578.78;5093253;28;20406;-62
2022/07/05 03:43:03;;;;;;;2.20;2.00;;;;;;;16.75;61.11;96589.03;5093290;28;20040;-62
2022/07/05 03:45:30;;;;;;;6.10;2.33;;;;;;;17.11;60.46;96585.06;5093175;28;20076;-62
2022/07/05 03:47:59;;;;;;;1.85;1.67;;;;;;;17.45;59.58;96584.66;5093133;28;20471;-63
2022/07/05 03:50:26;;;;;;;3.45;1.98;;;;;;;17.74;58.26;96578.41;5093086;28;20135;-62
2022/07/05 03:52:54;;;;;;;4.80;1.80;;;;;;;18.03;57.40;96583.53;5093053;28;20047;-63
2022/07/05 03:55:21;;;;;;;1.85;1.70;;;;;;;18.35;57.23;96571.72;5096918;28;20044;-62
2022/07/05 03:57:50;;;;;;;3.70;2.00;;;;;;;18.70;56.80;96573.72;5097402;28;20048;-62
2022/07/05 04:00:18;;;;;;;4.32;1.95;;;;;;;18.98;56.39;96562.94;5097171;28;20395;-63
2022/07/05 04:02:45;;;;;;;8.18;2.30;;;;;;;19.30;55.37;96568.56;5097089;28;20055;-63
2022/07/05 04:05:13;;;;;;;2.40;2.15;;;;;;;19.62;54.98;96575.13;5097069;28;20052;-63
2022/07/05 04:07:49;;;;;;;4.35;2.88;;;;;;;19.98;54.40;96571.63;5097041;28;20052;-63
2022/07/05 04:10:17;;;;;;;3.45;1.95;;;;;;;20.37;53.37;96566.03;5096838;28;20044;-63
2022/07/05 04:12:44;;;;;;;3.45;1.92;;;;;;;20.69;53.22;96571.50;5096876;28;20044;-63
2022/07/05 04:15:14;;;;;;;2.97;1.60;;;;;;;21.02;52.82;96562.78;5096950;28;20052;-63
2022/07/05 04:17:49;;;;;;;4.82;2.08;;;;;;;21.30;51.05;96568.53;5096539;28;20055;-63
2022/07/05 04:20:16;;;;;;;6.40;2.08;;;;;;;21.63;51.02;96565.88;5096764;28;20048;-63
2022/07/05 04:22:44;;;;;;;3.58;2.10;;;;;;;21.91;50.35;96567.13;5096733;28;20048;-63
2022/07/05 04:25:17;;;;;;;5.57;1.83;;;;;;;22.22;49.56;96564.50;5096626;28;20044;-64
2022/07/05 04:27:45;;;;;;;3.33;2.22;;;;;;;22.52;48.17;96562.03;5096595;28;20079;-63
2022/07/05 04:30:14;;;;;;;3.92;2.22;;;;;;;22.72;47.54;96549.66;5096515;28;20401;-63
2022/07/05 04:32:42;;;;;;;2.78;1.90;;;;;;;23.04;47.09;96554.94;5096612;28;20429;-63
2022/07/05 04:35:10;;;;;;;3.35;2.15;;;;;;;23.38;48.29;96557.25;5096586;28;20134;-63
2022/07/05 04:37:37;;;;;;;6.15;2.05;;;;;;;23.75;47.07;96555.72;5096495;28;20555;-63
2022/07/05 04:40:06;;;;;;;2.70;1.88;;;;;;;24.12;46.19;96559.50;5096400;28;20072;-64
2022/07/05 04:42:34;;;;;;;2.17;1.80;;;;;;;24.44;46.13;96550.28;5096403;28;20052;-63
2022/07/05 04:45:01;;;;;;;3.10;1.90;;;;;;;24.70;44.63;96552.31;5096458;28;20406;-63
2022/07/05 04:47:30;;;;;;;2.67;2.25;;;;;;;24.95;43.30;96551.81;5096195;28;20052;-64
2022/07/05 04:49:58;;;;;;;4.80;2.10;;;;;;;25.22;43.11;96537.56;5096140;28;20054;-63
2022/07/05 04:52:26;;;;;;;8.35;2.50;;;;;;;25.51;42.49;96546.38;5096102;28;20059;-63
2022/07/05 04:54:54;;;;;;;7.05;2.13;;;;;;;25.80;42.56;96540.00;5096122;28;20098;-63
2022/07/05 04:57:21;;;;;;;3.17;2.30;;;;;;;26.06;40.77;96549.88;5096151;28;20166;-63
2022/07/05 04:59:48;;;;;;;3.53;1.70;;;;;;;26.25;41.02;96548.03;5096102;28;20048;-63
2022/07/05 05:02:15;;;;;;;3.60;1.83;;;;;;;26.40;41.40;96537.59;5096126;28;20044;-63
2022/07/05 05:04:44;;;;;;;2.85;1.88;;;;;;;26.76;42.77;96541.97;5095478;28;20055;-63
2022/07/05 05:07:12;;;;;;;2.25;2.05;;;;;;;27.06;42.54;96555.00;5095399;28;20073;-63
2022/07/05 05:09:39;;;;;;;3.38;1.50;;;;;;;27.38;41.63;96545.34;5095846;28;20450;-62
2022/07/05 05:12:07;;;;;;;4.43;2.42;;;;;;;27.70;40.60;96564.41;5095873;28;20044;-63
2022/07/05 05:14:34;;;;;;;6.60;2.00;;;;;;;27.92;39.38;96545.94;5095775;28;20051;-63
2022/07/05 05:17:01;;;;;;;2.97;1.88;;;;;;;28.09;38.05;96549.47;5095829;28;20414;-63
2022/07/05 05:19:28;;;;;;;3.30;2.03;;;;;;;28.34;36.46;96550.31;5095435;28;20052;-63
2022/07/05 05:21:57;;;;;;;5.45;2.13;;;;;;;28.57;36.09;96548.72;5095575;28;20101;-62
2022/07/05 05:24:24;;;;;;;3.90;2.05;;;;;;;28.68;36.17;96551.03;5095645;28;20048;-63
2022/07/05 05:26:52;;;;;;;5.32;1.90;;;;;;;28.86;35.64;96553.50;5095604;28;20176;-63
2022/07/05 05:29:20;;;;;;;7.63;1.80;;;;;;;29.00;34.73;96551.13;5095604;28;20047;-63
2022/07/05 05:31:47;;;;;;;6.35;2.10;;;;;;;29.25;34.68;96556.38;5095330;28;20047;-63
2022/07/05 05:34:15;;;;;;;2.85;2.30;;;;;;;29.37;34.94;96560.34;5095412;28;20428;-64
2022/07/05 05:36:42;;;;;;;2.28;1.95;;;;;;;29.53;32.96;96566.66;5095243;28;20462;-63
2022/07/05 05:39:11;;;;;;;3.67;2.13;;;;;;;29.42;33.48;96564.38;5095387;28;20132;-63
2022/07/05 05:41:38;;;;;;;3.97;2.10;;;;;;;29.46;35.01;96561.13;5095288;28;20131;-64
2022/07/05 05:44:05;;;;;;;4.03;2.00;;;;;;;29.62;35.47;96567.47;5095284;28;20079;-64
2022/07/05 05:46:32;;;;;;;4.53;2.15;;;;;;;29.72;34.26;96569.94;5095106;28;20044;-64
2022/07/05 05:48:59;;;;;;;3.20;1.80;;;;;;;29.64;33.97;96578.91;5095289;28;20087;-63
2022/07/05 05:51:27;;;;;;;3.45;1.90;;;;;;;29.63;35.76;96579.94;5094884;28;20055;-63
2022/07/05 05:53:54;;;;;;;4.03;2.10;;;;;;;29.84;35.53;96573.03;5095105;28;20083;-63
2022/07/05 05:56:23;;;;;;;2.40;1.90;;;;;;;30.08;34.74;96574.72;5094918;28;20044;-63
2022/07/05 05:58:50;;;;;;;5.32;1.73;;;;;;;30.32;34.01;96580.94;5094909;28;20052;-64
2022/07/05 06:01:17;;;;;;;4.63;1.75;;;;;;;30.55;34.52;96581.88;5094861;28;20059;-64
2022/07/05 06:03:44;;;;;;;4.55;1.70;;;;;;;30.89;34.93;96584.06;5094778;28;20097;-63
2022/07/05 06:06:11;;;;;;;6.50;2.00;;;;;;;31.23;33.51;96586.34;5094810;28;20071;-64
2022/07/05 06:08:39;;;;;;;6.03;2.00;;;;;;;31.49;32.61;96575.06;5094701;28;20119;-63
2022/07/05 06:11:06;;;;;;;3.83;1.83;;;;;;;31.70;32.94;96588.78;5094560;28;20048;-63
2022/07/05 06:13:35;;;;;;;11.40;1.88;;;;;;;31.90;29.93;96581.69;5094589;28;20146;-63
2022/07/05 06:16:02;;;;;;;5.63;1.50;;;;;;;32.01;30.32;96588.50;5094412;28;20044;-63
2022/07/05 06:18:29;;;;;;;2.88;1.77;;;;;;;32.28;30.31;96590.59;5094232;28;20048;-63
2022/07/05 06:20:56;;;;;;;3.17;1.70;;;;;;;32.53;30.34;96579.34;5094370;28;20054;-63
2022/07/05 06:23:23;;;;;;;10.80;1.85;;;;;;;32.87;29.87;96579.56;5094426;28;20131;-63
2022/07/05 06:25:50;;;;;;;2.15;1.70;;;;;;;33.10;29.46;96573.00;5094426;28;20405;-63
2022/07/05 06:28:18;;;;;;;6.35;2.05;;;;;;;33.32;28.47;96573.75;5094358;28;20484;-63
2022/07/05 06:30:46;;;;;;;6.13;2.08;;;;;;;33.49;29.01;96574.19;5094216;28;20083;-63
2022/07/05 06:33:14;;;;;;;6.50;1.80;;;;;;;33.65;27.79;96583.03;5094330;28;20052;-63
2022/07/05 06:35:41;;;;;;;3.90;1.80;;;;;;;33.74;28.15;96584.50;5094232;28;20059;-63
2022/07/05 06:38:10;;;;;;;4.15;1.55;;;;;;;33.81;28.40;96581.81;5094101;28;20052;-63
2022/07/05 06:40:38;;;;;;;3.10;2.13;;;;;;;33.93;27.65;96570.34;5094162;28;20052;-63
2022/07/05 06:43:07;;;;;;;4.95;1.45;;;;;;;34.08;29.24;96578.28;5094061;28;20192;-63
2022/07/05 06:45:35;;;;;;;2.75;1.50;;;;;;;34.24;29.36;96572.47;5094047;28;20055;-64
2022/07/05 06:48:05;;;;;;;2.92;1.52;;;;;;;34.26;27.37;96581.25;5093949;28;20044;-63
2022/07/05 06:50:35;;;;;;;4.68;1.60;;;;;;;34.28;27.45;96579.16;5093823;28;20058;-63
2022/07/05 06:53:02;;;;;;;;;;;;;;;34.43;27.44;96582.69;5094309;28;20113;-63
2022/07/05 06:55:30;;;;;;;3.50;1.48;;;;;;;34.46;26.21;96574.94;5093975;28;19920;-63
2022/07/05 06:58:02;;;;;;;10.30;1.65;;;;;;;34.47;25.78;96579.34;5093776;28;20084;-63
2022/07/05 07:00:29;;;;;;;6.63;1.33;;;;;;;34.52;25.73;96571.41;5093799;28;20494;-63
2022/07/05 07:02:57;;;;;;;5.72;1.98;;;;;;;34.77;26.48;96569.94;5093719;28;20121;-62
2022/07/05 07:05:25;;;;;;;6.50;1.83;;;;;;;34.57;24.60;96567.22;5093813;28;20048;-63
2022/07/05 07:10:38;;;;;;;2.40;1.52;;;;;;;34.45;24.96;96570.59;5093691;28;20058;-63
2022/07/05 07:13:05;;;;;;;3.40;1.58;;;;;;;34.45;25.40;96567.88;5093716;28;20044;-63
2022/07/05 07:15:33;;;;;;;4.65;2.33;;;;;;;34.56;25.05;96563.69;5093603;28;20060;-63
2022/07/05 07:18:00;;;;;;;4.30;1.85;;;;;;;34.71;25.19;96565.34;5093132;28;20048;-63
2022/07/05 07:20:29;;;;;;;2.47;1.60;;;;;;;34.88;24.38;96568.44;5093461;28;20055;-63
2022/07/05 07:22:57;;;;;;;2.40;1.50;;;;;;;35.13;26.30;96568.56;5093495;28;20052;-63
2022/07/05 07:25:24;;;;;;;3.97;1.83;;;;;;;34.98;26.54;96576.13;5093587;28;20040;-63
2022/07/05 07:27:53;;;;;;;2.53;1.60;;;;;;;35.12;25.78;96569.59;5092961;28;20127;-63
2022/07/05 07:30:23;;;;;;;4.10;1.80;;;;;;;35.43;26.47;96561.75;5092924;28;20051;-63
2022/07/05 07:32:51;;;;;;;3.00;1.60;;;;;;;35.33;24.36;96564.13;5093351;28;20048;-63
2022/07/05 07:35:18;;;;;;;7.43;1.80;;;;;;;35.29;22.98;96561.84;5093248;28;20477;-63
2022/07/05 07:37:46;;;;;;;3.00;1.60;;;;;;;35.31;25.01;96564.34;5093336;28;20047;-63
2022/07/05 07:40:14;;;;;;;4.97;2.03;;;;;;;35.27;24.99;96553.06;5093290;28;20103;-62
2022/07/05 07:42:42;;;;;;;8.90;1.80;;;;;;;35.38;25.33;96556.13;5093267;28;20094;-63
2022/07/05 07:45:10;;;;;;;3.35;1.48;;;;;;;35.38;24.96;96561.56;5093103;28;20093;-63
2022/07/05 07:47:37;;;;;;;4.55;2.20;;;;;;;35.31;25.09;96566.22;5093206;28;20055;-62
2022/07/05 07:50:06;;;;;;;4.13;2.00;;;;;;;35.43;25.99;96567.19;5093078;28;20052;-63
2022/07/05 07:52:34;;;;;;;2.95;1.92;;;;;;;35.40;26.33;96559.47;5093033;28;20083;-63
2022/07/05 07:55:03;;;;;;;3.33;2.05;;;;;;;35.51;26.03;96563.38;5093087;28;20045;-63
2022/07/05 07:57:30;;;;;;;5.03;2.57;;;;;;;35.73;25.50;96561.22;5093161;28;20516;-62
2022/07/05 07:59:58;;;;;;;6.38;2.30;;;;;;;35.78;25.60;96560.53;5093118;28;20048;-63
2022/07/05 08:02:26;;;;;;;8.25;2.35;;;;;;;35.76;26.11;96566.19;5093170;28;20059;-62
2022/07/05 08:04:53;;;;;;;8.48;2.35;;;;;;;35.90;25.58;96574.25;5093025;28;20048;-63
2022/07/05 08:07:20;;;;;;;7.63;2.38;;;;;;;35.92;25.06;96570.28;5092950;28;20055;-62
2022/07/05 08:09:47;;;;;;;16.08;2.50;;;;;;;35.99;24.76;96572.13;5092940;28;20040;-63
2022/07/05 08:12:16;;;;;;;6.15;2.35;;;;;;;35.98;25.00;96562.25;5092731;28;20083;-63
2022/07/05 08:14:43;;;;;;;6.82;2.55;;;;;;;35.69;24.77;96570.00;5092998;28;20040;-63
2022/07/05 08:17:11;;;;;;;4.63;2.30;;;;;;;35.64;25.39;96576.88;5092841;28;20054;-63
2022/07/05 08:22:23;;;;;;;8.82;3.25;;;;;;;34.23;26.93;96578.97;5092921;28;20051;-62
2022/07/05 08:24:51;;;;;;;7.63;3.13;;;;;;;33.92;26.21;96569.53;5092867;28;20072;-62
2022/07/05 08:27:20;;;;;;;9.93;2.65;;;;;;;33.94;27.09;96567.44;5092864;28;20040;-62
2022/07/05 08:29:47;;;;;;;13.35;3.17;;;;;;;34.08;26.37;96568.28;5092828;28;20048;-62
2022/07/05 08:32:14;;;;;;;6.07;3.13;;;;;;;33.97;26.25;96569.72;5092747;28;20048;-62
2022/07/05 08:34:41;;;;;;;6.55;2.88;;;;;;;33.49;28.65;96568.78;5092803;28;20097;-62
2022/07/05 08:37:09;;;;;;;5.75;2.42;;;;;;;33.64;28.96;96571.34;5092759;28;20043;-62
2022/07/05 08:39:39;;;;;;;7.22;2.75;;;;;;;34.06;29.20;96578.50;5093346;28;20048;-62
2022/07/05 08:42:10;;;;;;;6.03;2.75;;;;;;;34.10;26.95;96578.94;5096393;28;20051;-62
2022/07/05 08:44:40;;;;;;;7.35;3.08;;;;;;;33.89;27.33;96578.06;5096311;28;20493;-62
2022/07/05 08:47:11;;;;;;;4.20;2.65;;;;;;;33.81;27.78;96567.41;5096275;28;20075;-62
2022/07/05 08:49:40;;;;;;;6.80;2.90;;;;;;;34.07;25.59;96572.00;5096210;28;20050;-62
2022/07/05 08:52:11;;;;;;;11.27;2.90;;;;;;;33.80;29.13;96569.31;5096241;28;20048;-62
2022/07/05 08:54:39;;;;;;;7.95;2.92;;;;;;;33.94;28.78;96572.00;5096120;28;20087;-63
2022/07/05 08:57:06;;;;;;;5.80;2.85;;;;;;;34.07;27.93;96571.19;5096102;28;20048;-62
2022/07/05 08:59:34;;;;;;;4.22;2.60;;;;;;;34.19;26.75;96576.88;5096221;28;20041;-62
2022/07/05 09:02:03;;;;;;;6.35;3.05;;;;;;;33.87;26.99;96578.28;5096002;28;20044;-62
2022/07/05 09:04:34;;;;;;;3.83;2.83;;;;;;;33.72;27.45;96581.19;5096067;28;20048;-62
2022/07/05 09:07:07;;;;;;;8.02;2.53;;;;;;;33.94;27.47;96585.56;5095965;28;20074;-62
2022/07/05 09:09:35;;;;;;;9.70;3.20;;;;;;;34.02;27.13;96577.25;5095881;28;20470;-62
2022/07/05 09:12:02;;;;;;;8.70;2.95;;;;;;;34.19;28.23;96576.88;5095666;28;20481;-62
2022/07/05 09:14:29;;;;;;;6.25;2.90;;;;;;;34.18;27.00;96584.16;5095812;28;20127;-62
2022/07/05 09:16:58;;;;;;;10.88;2.85;;;;;;;34.28;27.18;96570.19;5095766;28;20136;-62
2022/07/05 09:19:28;;;;;;;7.47;2.97;;;;;;;34.65;26.11;96576.03;5095567;28;20048;-62
2022/07/05 09:22:04;;;;;;;12.50;3.30;;;;;;;34.64;27.03;96568.06;5095597;28;20052;-62
2022/07/05 09:24:31;;;;;;;12.45;3.00;;;;;;;34.20;26.09;96565.81;5095529;28;20040;-62
2022/07/05 09:27:04;;;;;;;6.40;2.80;;;;;;;34.33;27.37;96559.53;5095541;28;20052;-62
2022/07/05 09:29:32;;;;;;;4.88;2.60;;;;;;;34.49;26.16;96555.53;5095519;28;20052;-62
2022/07/05 09:32:00;;;;;;;12.40;2.60;;;;;;;34.19;27.59;96558.69;5095452;28;20105;-62
2022/07/05 09:34:30;;;;;;;8.32;2.83;;;;;;;34.20;27.93;96562.25;5095308;28;20052;-62
2022/07/05 09:37:01;;;;;;;13.75;3.88;;;;;;;34.08;25.41;96556.59;5095281;28;20047;-62
2022/07/05 09:39:40;;;;;;;6.45;2.65;;;;;;;33.85;26.10;96561.38;5095237;28;20047;-62
2022/07/05 09:42:18;;;;;;;7.38;3.10;;;;;;;33.84;26.53;96554.28;5095356;28;20048;-62
2022/07/05 09:44:46;;;;;;;7.75;3.03;;;;;;;33.71;27.20;96546.94;5095217;28;20052;-62
2022/07/05 09:47:15;;;;;;;4.25;2.60;;;;;;;33.84;28.05;96542.59;5095188;28;20126;-62
2022/07/05 09:49:47;;;;;;;7.65;2.92;;;;;;;34.13;28.21;96548.69;5095095;28;20078;-62
2022/07/05 09:52:28;;;;;;;6.68;2.75;;;;;;;34.33;27.05;96547.84;5094304;28;20083;-62
2022/07/05 09:55:04;;;;;;;5.72;2.67;;;;;;;34.44;27.11;96540.94;5094959;28;20055;-62
2022/07/05 09:57:32;;;;;;;5.78;2.70;;;;;;;34.59;26.75;96536.13;5094906;28;20055;-62
2022/07/05 10:00:03;;;;;;;8.90;2.90;;;;;;;34.75;27.22;96548.41;5094986;28;20048;-62
2022/07/05 10:02:38;;;;;;;5.35;2.60;;;;;;;34.79;25.22;96537.94;5094846;28;20083;-62
2022/07/05 10:05:12;;;;;;;3.83;2.80;;;;;;;34.65;27.29;96534.44;5094826;28;20048;-62
2022/07/05 10:07:44;;;;;;;4.55;3.22;;;;;;;34.45;26.82;96520.88;5094725;28;20048;-62
2022/07/05 10:10:12;;;;;;;5.50;3.22;;;;;;;34.37;27.27;96533.63;5094737;28;20084;-62
2022/07/05 10:12:41;;;;;;;4.75;2.75;;;;;;;34.19;26.63;96522.59;5094566;28;20077;-62
2022/07/05 10:15:11;;;;;;;9.23;3.70;;;;;;;33.57;27.27;96526.25;5094367;28;20101;-62
2022/07/05 10:17:42;;;;;;;9.73;3.75;;;;;;;33.02;27.44;96525.25;5094380;28;20501;-62
2022/07/05 10:20:20;;;;;;;3.97;3.10;;;;;;;32.71;29.07;96524.69;5094625;28;20044;-62
2022/07/05 10:22:48;;;;;;;6.13;2.92;;;;;;;32.92;29.69;96525.63;5094538;28;20403;-62
2022/07/05 10:25:15;;;;;;;11.15;3.70;;;;;;;33.20;28.13;96523.88;5094420;28;20044;-62
2022/07/05 10:27:43;;;;;;;6.97;3.00;;;;;;;33.32;27.51;96516.00;5094425;28;20477;-62
2022/07/05 10:30:11;;;;;;;6.90;3.08;;;;;;;33.60;29.34;96513.19;5094408;28;20043;-62
2022/07/05 10:32:40;;;;;;;5.45;3.42;;;;;;;33.62;27.22;96516.50;5094327;28;20160;-62
2022/07/05 10:35:09;;;;;;;4.38;3.50;;;;;;;33.63;28.17;96526.31;5094168;28;20482;-61
2022/07/05 10:37:38;;;;;;;5.28;3.10;;;;;;;33.34;27.27;96525.59;5094248;28;20051;-62
2022/07/05 10:40:07;;;;;;;5.78;2.92;;;;;;;32.69;27.80;96521.38;5094156;28;20040;-62
2022/07/05 10:42:40;;;;;;;4.75;3.60;;;;;;;32.37;27.70;96515.50;5094126;28;20551;-62
2022/07/05 10:45:27;;;;;;;7.97;3.30;;;;;;;32.48;30.57;96517.69;5094097;28;20105;-62
2022/07/05 10:48:17;;;;;;;10.10;3.13;;;;;;;32.78;28.48;96522.03;5093958;28;20123;-62
2022/07/05 10:50:47;;;;;;;4.40;2.93;;;;;;;32.30;28.50;96515.47;5094094;28;20056;-61
2022/07/05 10:53:17;;;;;;;7.40;3.13;;;;;;;32.42;28.40;96504.09;5093810;28;20048;-61
2022/07/05 10:55:58;;;;;;;5.20;3.60;;;;;;;32.62;27.38;96512.34;5093910;28;20063;-61
2022/07/05 10:58:30;;;;;;;7.03;3.53;;;;;;;32.86;28.96;96502.06;5093922;28;20048;-62
2022/07/05 11:01:30;;;;;;;7.15;3.40;;;;;;;33.13;28.31;96502.19;5093705;28;20076;-62
2022/07/05 11:04:12;;;;;;;9.30;3.45;;;;;;;33.32;28.04;96503.31;5090267;28;20052;-61
2022/07/05 11:06:44;;;;;;;9.52;3.60;;;;;;;33.03;26.75;96495.28;5093759;28;20059;-62
2022/07/05 11:09:22;;;;;;;8.60;3.33;;;;;;;32.88;27.99;96494.56;5093575;28;20458;-61
2022/07/05 11:12:09;;;;;;;6.10;3.63;;;;;;;32.63;28.64;96492.38;5093482;28;20044;-62
2022/07/05 11:14:38;;;;;;;5.65;3.22;;;;;;;32.65;27.89;96495.72;5093530;28;20413;-62
2022/07/05 11:17:29;;;;;;;5.55;3.08;;;;;;;32.53;27.30;96488.19;5093402;28;20430;-62
2022/07/05 11:20:15;;;;;;;8.05;3.47;;;;;;;32.01;28.44;96491.16;5089808;28;20108;-62
2022/07/05 11:23:03;;;;;;;8.18;3.40;;;;;;;32.03;29.20;96483.66;5093409;28;20139;-62
2022/07/05 11:25:33;;;;;;;7.28;3.50;;;;;;;31.85;28.17;96488.69;5093483;28;20055;-62
2022/07/05 11:28:02;;;;;;;6.88;3.70;;;;;;;31.97;30.07;96481.75;5093444;28;20494;-62
2022/07/05 11:30:29;;;;;;;7.65;3.75;;;;;;;32.01;29.08;96488.44;5093257;28;20127;-62
2022/07/05 11:33:00;;;;;;;7.43;3.28;;;;;;;32.00;28.32;96484.03;5093195;28;20054;-62
2022/07/05 11:35:33;;;;;;;7.88;3.03;;;;;;;32.17;29.23;96478.34;5093343;28;20079;-62
2022/07/05 11:38:04;;;;;;;7.30;3.40;;;;;;;32.01;28.15;96474.09;5093294;28;20047;-62
2022/07/05 11:40:35;;;;;;;5.47;3.45;;;;;;;32.09;28.27;96483.91;5093346;28;20048;-62
2022/07/05 11:43:02;;;;;;;5.43;3.50;;;;;;;31.76;28.10;96479.91;5093198;28;20051;-62
2022/07/05 11:45:32;;;;;;;6.47;3.28;;;;;;;31.74;28.12;96469.28;5093260;28;20051;-62
2022/07/05 11:47:59;;;;;;;5.07;3.30;;;;;;;31.86;28.06;96475.00;5093164;28;20044;-62